createdAt,value
2023-05-11T00:00:39.985Z,976.57
2023-05-11T00:01:39.939Z,976.53
2023-05-11T00:02:39.986Z,976.53
2023-05-11T00:03:39.982Z,976.50
2023-05-11T00:04:39.964Z,976.53
2023-05-11T00:05:39.895Z,976.50
2023-05-11T00:06:39.884Z,976.47
2023-05-11T00:07:39.859Z,976.51
2023-05-11T00:08:39.850Z,976.52
2023-05-11T00:09:39.840Z,976.53
2023-05-11T00:10:39.851Z,976.47
2023-05-11T00:11:39.808Z,976.49
2023-05-11T00:12:39.805Z,976.48
2023-05-11T00:13:39.792Z,976.41
2023-05-11T00:14:39.769Z,976.51
2023-05-11T00:15:39.768Z,976.44
2023-05-11T00:16:39.753Z,976.47
2023-05-11T00:17:39.768Z,976.43
2023-05-11T00:18:39.751Z,976.46
2023-05-11T00:19:39.706Z,976.47
2023-05-11T00:20:39.691Z,976.46
2023-05-11T00:21:39.673Z,976.49
2023-05-11T00:22:39.658Z,976.44
2023-05-11T00:23:39.682Z,976.49
2023-05-11T00:24:39.643Z,976.45
2023-05-11T00:25:39.629Z,976.43
2023-05-11T00:26:39.616Z,976.43
2023-05-11T00:27:39.623Z,976.43
2023-05-11T00:28:39.613Z,976.40
2023-05-11T00:29:39.583Z,976.45
2023-05-11T00:30:39.564Z,976.43
2023-05-11T00:31:39.567Z,976.38
2023-05-11T00:32:39.600Z,976.39
2023-05-11T00:33:39.517Z,976.44
2023-05-11T00:34:39.512Z,976.39
2023-05-11T00:35:39.497Z,976.36
2023-05-11T00:36:41.079Z,976.36
2023-05-11T00:37:39.586Z,976.38
2023-05-11T00:38:39.461Z,976.35
2023-05-11T00:39:39.442Z,976.40
2023-05-11T00:40:39.434Z,976.37
2023-05-11T00:41:39.457Z,976.32
2023-05-11T00:42:39.421Z,976.34
2023-05-11T00:43:39.399Z,976.31
2023-05-11T00:44:39.409Z,976.36
2023-05-11T00:45:39.363Z,976.31
2023-05-11T00:46:39.434Z,976.30
2023-05-11T00:47:39.354Z,976.27
2023-05-11T00:48:39.356Z,976.29
2023-05-11T00:49:39.314Z,976.26
2023-05-11T00:50:39.298Z,976.30
2023-05-11T00:51:39.304Z,976.33
2023-05-11T00:52:39.277Z,976.26
2023-05-11T00:53:39.259Z,976.32
2023-05-11T00:54:39.254Z,976.29
2023-05-11T00:55:39.225Z,976.22
2023-05-11T00:56:39.227Z,976.26
2023-05-11T00:57:39.209Z,976.26
2023-05-11T00:58:39.197Z,976.29
2023-05-11T00:59:39.176Z,976.26
2023-05-11T01:00:39.236Z,976.27
2023-05-11T01:01:39.177Z,976.26
2023-05-11T01:02:39.350Z,976.30
2023-05-11T01:03:39.123Z,976.25
2023-05-11T01:04:39.105Z,976.25
2023-05-11T01:05:39.112Z,976.34
2023-05-11T01:06:39.094Z,976.27
2023-05-11T01:07:39.079Z,976.26
2023-05-11T01:08:39.069Z,976.31
2023-05-11T01:09:39.051Z,976.29
2023-05-11T01:10:39.044Z,976.32
2023-05-11T01:11:39.058Z,976.27
2023-05-11T01:12:39.016Z,976.32
2023-05-11T01:13:38.992Z,976.29
2023-05-11T01:14:39.008Z,976.28
2023-05-11T01:15:38.989Z,976.27
2023-05-11T01:16:39.033Z,976.31
2023-05-11T01:17:38.972Z,976.30
2023-05-11T01:18:38.964Z,976.33
2023-05-11T01:19:38.926Z,976.38
2023-05-11T01:20:38.965Z,976.35
2023-05-11T01:21:38.897Z,976.30
2023-05-11T01:22:38.899Z,976.24
2023-05-11T01:23:38.882Z,976.24
2023-05-11T01:24:38.867Z,976.34
2023-05-11T01:25:38.872Z,976.30
2023-05-11T01:26:38.836Z,976.28
2023-05-11T01:27:38.827Z,976.32
2023-05-11T01:28:38.821Z,976.31
2023-05-11T01:29:38.801Z,976.33
2023-05-11T01:30:38.781Z,976.28
2023-05-11T01:31:38.783Z,976.34
2023-05-11T01:32:40.836Z,976.29
2023-05-11T01:33:38.763Z,976.33
2023-05-11T01:34:38.744Z,976.33
2023-05-11T01:35:38.710Z,976.30
2023-05-11T01:36:38.710Z,976.34
2023-05-11T01:37:38.679Z,976.30
2023-05-11T01:38:38.690Z,976.23
2023-05-11T01:39:38.655Z,976.25
2023-05-11T01:40:38.657Z,976.33
2023-05-11T01:41:38.654Z,976.30
2023-05-11T01:42:38.637Z,976.23
2023-05-11T01:43:38.615Z,976.21
2023-05-11T01:44:38.602Z,976.28
2023-05-11T01:45:38.594Z,976.27
2023-05-11T01:46:38.762Z,976.24
2023-05-11T01:47:38.626Z,976.26
2023-05-11T01:48:38.571Z,976.31
2023-05-11T01:49:38.542Z,976.28
2023-05-11T01:50:38.520Z,976.31
2023-05-11T01:51:38.506Z,976.26
2023-05-11T01:52:38.504Z,976.26
2023-05-11T01:53:38.481Z,976.27
2023-05-11T01:54:38.469Z,976.31
2023-05-11T01:55:38.460Z,976.27
2023-05-11T01:56:38.448Z,976.27
2023-05-11T01:57:38.444Z,976.30
2023-05-11T01:58:38.409Z,976.27
2023-05-11T01:59:38.393Z,976.27
2023-05-11T02:00:38.384Z,976.25
2023-05-11T02:01:38.430Z,976.21
2023-05-11T02:02:38.450Z,976.27
2023-05-11T02:03:38.410Z,976.29
2023-05-11T02:04:38.327Z,976.26
2023-05-11T02:05:38.320Z,976.24
2023-05-11T02:06:38.320Z,976.29
2023-05-11T02:07:38.307Z,976.30
2023-05-11T02:08:38.295Z,976.29
2023-05-11T02:09:38.266Z,976.25
2023-05-11T02:10:38.287Z,976.25
2023-05-11T02:11:38.254Z,976.26
2023-05-11T02:12:38.235Z,976.23
2023-05-11T02:13:38.218Z,976.25
2023-05-11T02:14:38.234Z,976.26
2023-05-11T02:15:38.269Z,976.24
2023-05-11T02:16:38.201Z,976.31
2023-05-11T02:17:38.210Z,976.27
2023-05-11T02:18:38.209Z,976.26
2023-05-11T02:19:38.157Z,976.22
2023-05-11T02:20:38.133Z,976.24
2023-05-11T02:21:38.109Z,976.24
2023-05-11T02:22:38.109Z,976.29
2023-05-11T02:23:38.082Z,976.27
2023-05-11T02:24:38.073Z,976.29
2023-05-11T02:25:38.070Z,976.26
2023-05-11T02:26:38.065Z,976.23
2023-05-11T02:27:38.049Z,976.21
2023-05-11T02:28:38.022Z,976.28
2023-05-11T02:29:38.026Z,976.32
2023-05-11T02:30:38.007Z,976.30
2023-05-11T02:31:38.005Z,976.32
2023-05-11T02:32:38.015Z,976.29
2023-05-11T02:33:37.970Z,976.24
2023-05-11T02:34:37.960Z,976.25
2023-05-11T02:35:37.941Z,976.21
2023-05-11T02:36:37.934Z,976.25
2023-05-11T02:37:37.908Z,976.26
2023-05-11T02:38:37.909Z,976.17
2023-05-11T02:39:37.891Z,976.26
2023-05-11T02:40:37.874Z,976.19
2023-05-11T02:41:37.860Z,976.23
2023-05-11T02:42:37.841Z,976.23
2023-05-11T02:43:37.853Z,976.22
2023-05-11T02:44:37.826Z,976.23
2023-05-11T02:45:37.832Z,976.22
2023-05-11T02:46:37.844Z,976.23
2023-05-11T02:47:37.803Z,976.19
2023-05-11T02:48:37.782Z,976.21
2023-05-11T02:49:37.755Z,976.22
2023-05-11T02:50:37.729Z,976.21
2023-05-11T02:51:37.739Z,976.16
2023-05-11T02:52:37.718Z,976.18
2023-05-11T02:53:37.714Z,976.17
2023-05-11T02:54:37.700Z,976.15
2023-05-11T02:55:37.680Z,976.21
2023-05-11T02:56:37.674Z,976.21
2023-05-11T02:57:37.665Z,976.20
2023-05-11T02:58:37.725Z,976.23
2023-05-11T02:59:37.641Z,976.20
2023-05-11T03:00:37.677Z,976.18
2023-05-11T03:01:37.649Z,976.16
2023-05-11T03:02:37.762Z,976.19
2023-05-11T03:03:37.808Z,976.18
2023-05-11T03:04:37.575Z,976.26
2023-05-11T03:05:37.558Z,976.30
2023-05-11T03:06:37.536Z,976.22
2023-05-11T03:07:37.545Z,976.22
2023-05-11T03:08:37.507Z,976.16
2023-05-11T03:09:37.499Z,976.16
2023-05-11T03:10:37.498Z,976.25
2023-05-11T03:11:37.470Z,976.15
2023-05-11T03:12:37.466Z,976.16
2023-05-11T03:13:37.467Z,976.15
2023-05-11T03:14:37.426Z,976.15
2023-05-11T03:15:37.430Z,976.23
2023-05-11T03:16:37.496Z,976.17
2023-05-11T03:17:37.439Z,976.16
2023-05-11T03:18:37.422Z,976.20
2023-05-11T03:19:37.375Z,976.16
2023-05-11T03:20:37.354Z,976.16
2023-05-11T03:21:37.369Z,976.19
2023-05-11T03:22:37.325Z,976.19
2023-05-11T03:23:37.326Z,976.15
2023-05-11T03:24:37.305Z,976.20
2023-05-11T03:25:37.288Z,976.24
2023-05-11T03:26:37.290Z,976.17
2023-05-11T03:27:37.276Z,976.17
2023-05-11T03:28:37.254Z,976.21
2023-05-11T03:29:37.248Z,976.18
2023-05-11T03:30:37.236Z,976.16
2023-05-11T03:31:37.280Z,976.14
2023-05-11T03:32:37.277Z,976.13
2023-05-11T03:33:37.201Z,976.10
2023-05-11T03:34:37.201Z,976.04
2023-05-11T03:35:37.193Z,976.11
2023-05-11T03:36:37.154Z,976.11
2023-05-11T03:37:37.146Z,976.06
2023-05-11T03:38:37.118Z,976.10
2023-05-11T03:39:37.125Z,976.12
2023-05-11T03:40:37.125Z,976.08
2023-05-11T03:41:37.093Z,976.08
2023-05-11T03:42:37.071Z,976.04
2023-05-11T03:43:37.072Z,976.09
2023-05-11T03:44:37.072Z,976.04
2023-05-11T03:45:37.038Z,976.03
2023-05-11T03:46:37.164Z,976.09
2023-05-11T03:47:37.042Z,976.05
2023-05-11T03:48:37.009Z,976.09
2023-05-11T03:49:36.996Z,976.08
2023-05-11T04:03:10.107Z,976.01
2023-05-11T04:04:09.977Z,976.02
2023-05-11T04:05:09.949Z,975.99
2023-05-11T04:06:09.932Z,975.94
2023-05-11T04:07:09.908Z,976.01
2023-05-11T04:08:09.913Z,975.98
2023-05-11T04:09:09.898Z,976.00
2023-05-11T04:10:09.884Z,975.98
2023-05-11T04:11:09.869Z,975.96
2023-05-11T04:12:09.865Z,975.92
2023-05-11T04:13:09.858Z,975.94
2023-05-11T04:14:09.822Z,975.96
2023-05-11T04:15:09.806Z,975.96
2023-05-11T04:16:09.829Z,975.93
2023-05-11T04:17:09.804Z,975.95
2023-05-11T04:18:09.848Z,975.91
2023-05-11T04:19:09.759Z,975.93
2023-05-11T04:20:09.751Z,975.92
2023-05-11T04:21:09.749Z,975.99
2023-05-11T04:22:09.729Z,975.94
2023-05-11T04:23:10.548Z,975.97
2023-05-11T04:24:09.690Z,975.95
2023-05-11T04:25:09.696Z,975.95
2023-05-11T04:26:09.680Z,975.98
2023-05-11T04:27:09.652Z,975.99
2023-05-11T04:28:09.638Z,976.03
2023-05-11T04:29:09.631Z,976.03
2023-05-11T04:30:09.622Z,976.02
2023-05-11T04:31:09.620Z,976.04
2023-05-11T04:32:09.598Z,976.04
2023-05-11T04:33:09.566Z,976.04
2023-05-11T04:34:09.561Z,976.08
2023-05-11T04:35:09.551Z,976.06
2023-05-11T04:36:09.548Z,976.03
2023-05-11T04:37:09.523Z,976.04
2023-05-11T04:38:09.495Z,976.02
2023-05-11T04:39:09.501Z,976.06
2023-05-11T04:40:09.469Z,976.05
2023-05-11T04:41:09.504Z,976.05
2023-05-11T04:42:09.446Z,976.03
2023-05-11T04:43:09.444Z,976.10
2023-05-11T04:44:09.437Z,976.11
2023-05-11T04:45:09.424Z,976.08
2023-05-11T04:46:09.434Z,976.11
2023-05-11T04:47:09.451Z,976.09
2023-05-11T04:48:09.470Z,976.04
2023-05-11T04:49:09.371Z,976.09
2023-05-11T04:50:09.353Z,976.13
2023-05-11T04:51:09.353Z,976.14
2023-05-11T04:52:09.327Z,976.08
2023-05-11T04:53:09.315Z,976.10
2023-05-11T04:54:09.296Z,976.09
2023-05-11T04:55:09.291Z,976.13
2023-05-11T04:56:09.267Z,976.10
2023-05-11T04:57:09.272Z,976.15
2023-05-11T04:58:09.242Z,976.08
2023-05-11T04:59:09.243Z,976.09
2023-05-11T05:00:09.264Z,976.15
2023-05-11T05:01:09.246Z,976.16
2023-05-11T05:02:09.190Z,976.09
2023-05-11T05:03:09.269Z,976.12
2023-05-11T05:04:09.199Z,976.14
2023-05-11T05:05:09.168Z,976.09
2023-05-11T05:06:09.143Z,976.14
2023-05-11T05:07:09.141Z,976.12
2023-05-11T05:08:09.120Z,976.11
2023-05-11T05:09:09.114Z,976.10
2023-05-11T05:10:09.149Z,976.06
2023-05-11T05:11:09.094Z,976.10
2023-05-11T05:12:09.071Z,976.13
2023-05-11T05:13:09.049Z,976.11
2023-05-11T05:14:09.047Z,976.04
2023-05-11T05:15:09.024Z,976.09
2023-05-11T05:16:09.020Z,976.09
2023-05-11T05:17:09.071Z,976.06
2023-05-11T05:18:09.003Z,976.09
2023-05-11T05:19:09.009Z,976.13
2023-05-11T05:20:08.962Z,976.11
2023-05-11T05:21:08.935Z,976.16
2023-05-11T05:22:08.932Z,976.10
2023-05-11T05:23:08.936Z,976.14
2023-05-11T05:24:08.907Z,976.15
2023-05-11T05:25:08.902Z,976.18
2023-05-11T05:26:08.882Z,976.16
2023-05-11T05:27:08.881Z,976.19
2023-05-11T05:28:08.864Z,976.14
2023-05-11T05:29:08.845Z,976.23
2023-05-11T05:30:08.822Z,976.17
2023-05-11T05:31:08.849Z,976.18
2023-05-11T05:32:08.815Z,976.17
2023-05-11T05:33:08.804Z,976.18
2023-05-11T05:34:08.771Z,976.26
2023-05-11T05:35:08.770Z,976.23
2023-05-11T05:36:08.759Z,976.25
2023-05-11T05:37:08.751Z,976.27
2023-05-11T05:38:08.723Z,976.29
2023-05-11T05:39:08.714Z,976.32
2023-05-11T05:40:08.698Z,976.28
2023-05-11T05:41:08.688Z,976.29
2023-05-11T05:42:08.692Z,976.35
2023-05-11T05:43:08.669Z,976.26
2023-05-11T05:44:08.657Z,976.29
2023-05-11T05:45:08.634Z,976.31
2023-05-11T05:46:08.680Z,976.30
2023-05-11T05:47:08.621Z,976.28
2023-05-11T05:48:08.625Z,976.28
2023-05-11T05:49:08.593Z,976.28
2023-05-11T05:50:08.570Z,976.35
2023-05-11T05:51:08.570Z,976.32
2023-05-11T05:52:08.543Z,976.24
2023-05-11T05:53:08.527Z,976.32
2023-05-11T05:54:08.514Z,976.24
2023-05-11T05:55:08.515Z,976.30
2023-05-11T05:56:08.497Z,976.27
2023-05-11T05:57:08.496Z,976.31
2023-05-11T05:58:08.449Z,976.27
2023-05-11T05:59:08.456Z,976.32
2023-05-11T06:00:08.439Z,976.37
2023-05-11T06:01:08.432Z,976.31
2023-05-11T06:02:08.415Z,976.32
2023-05-11T06:03:08.543Z,976.35
2023-05-11T06:04:08.521Z,976.38
2023-05-11T06:05:08.381Z,976.38
2023-05-11T06:06:08.355Z,976.35
2023-05-11T06:07:08.355Z,976.39
2023-05-11T06:08:10.980Z,976.41
2023-05-11T06:09:08.304Z,976.39
2023-05-11T06:10:08.310Z,976.45
2023-05-11T06:11:08.281Z,976.41
2023-05-11T06:12:08.279Z,976.42
2023-05-11T06:13:08.257Z,976.41
2023-05-11T06:14:08.255Z,976.38
2023-05-11T06:15:08.245Z,976.40
2023-05-11T06:16:08.274Z,976.43
2023-05-11T06:17:08.234Z,976.41
2023-05-11T06:18:08.252Z,976.44
2023-05-11T06:19:08.271Z,976.45
2023-05-11T06:20:08.177Z,976.42
2023-05-11T06:21:08.162Z,976.47
2023-05-11T06:22:08.148Z,976.46
2023-05-11T06:23:08.185Z,976.48
2023-05-11T06:24:08.127Z,976.51
2023-05-11T06:25:08.111Z,976.47
2023-05-11T06:26:08.086Z,976.45
2023-05-11T06:27:08.078Z,976.48
2023-05-11T06:28:08.081Z,976.42
2023-05-11T06:29:08.117Z,976.45
2023-05-11T06:30:08.031Z,976.38
2023-05-11T06:31:08.030Z,976.45
2023-05-11T06:32:08.178Z,976.42
2023-05-11T06:33:08.112Z,976.41
2023-05-11T06:34:07.984Z,976.41
2023-05-11T06:35:07.987Z,976.41
2023-05-11T06:36:07.962Z,976.44
2023-05-11T06:37:07.946Z,976.39
2023-05-11T06:38:07.947Z,976.37
2023-05-11T06:39:07.949Z,976.39
2023-05-11T06:40:07.912Z,976.38
2023-05-11T06:41:07.901Z,976.43
2023-05-11T06:42:07.877Z,976.40
2023-05-11T06:43:07.880Z,976.41
2023-05-11T06:44:07.857Z,976.44
2023-05-11T06:45:07.894Z,976.43
2023-05-11T06:46:07.878Z,976.40
2023-05-11T06:47:07.840Z,976.37
2023-05-11T06:48:07.870Z,976.44
2023-05-11T06:49:07.800Z,976.35
2023-05-11T06:50:07.775Z,976.34
2023-05-11T06:51:07.769Z,976.32
2023-05-11T06:52:07.746Z,976.34
2023-05-11T06:53:07.740Z,976.40
2023-05-11T06:54:07.815Z,976.35
2023-05-11T06:55:07.712Z,976.35
2023-05-11T06:56:07.695Z,976.40
2023-05-11T06:57:07.725Z,976.35
2023-05-11T06:58:07.681Z,976.38
2023-05-11T06:59:07.670Z,976.38
2023-05-11T07:00:07.653Z,976.39
2023-05-11T07:01:07.759Z,976.39
2023-05-11T07:02:07.625Z,976.39
2023-05-11T07:03:07.738Z,976.39
2023-05-11T07:04:07.660Z,976.36
2023-05-11T07:05:07.635Z,976.42
2023-05-11T07:06:07.583Z,976.41
2023-05-11T07:07:07.561Z,976.46
2023-05-11T07:08:07.532Z,976.38
2023-05-11T07:09:07.522Z,976.43
2023-05-11T07:10:07.505Z,976.46
2023-05-11T07:11:07.548Z,976.42
2023-05-11T07:12:07.482Z,976.37
2023-05-11T07:13:07.484Z,976.43
2023-05-11T07:14:07.465Z,976.46
2023-05-11T07:15:07.465Z,976.44
2023-05-11T07:16:07.443Z,976.43
2023-05-11T07:17:07.463Z,976.39
2023-05-11T07:18:07.469Z,976.44
2023-05-11T07:19:07.474Z,976.46
2023-05-11T07:20:07.389Z,976.44
2023-05-11T07:21:07.374Z,976.47
2023-05-11T07:22:07.360Z,976.48
2023-05-11T07:23:07.337Z,976.45
2023-05-11T07:24:07.368Z,976.50
2023-05-11T07:25:07.326Z,976.48
2023-05-11T07:26:07.291Z,976.49
2023-05-11T07:27:07.288Z,976.51
2023-05-11T07:28:07.288Z,976.49
2023-05-11T07:29:07.258Z,976.46
2023-05-11T07:30:07.267Z,976.47
2023-05-11T07:31:07.272Z,976.45
2023-05-11T07:32:07.234Z,976.54
2023-05-11T07:33:07.254Z,976.47
2023-05-11T07:34:07.184Z,976.52
2023-05-11T07:35:07.184Z,976.50
2023-05-11T07:36:07.156Z,976.57
2023-05-11T07:37:07.159Z,976.47
2023-05-11T07:38:07.134Z,976.50
2023-05-11T07:39:07.139Z,976.51
2023-05-11T07:40:07.126Z,976.51
2023-05-11T07:41:08.313Z,976.53
2023-05-11T07:42:07.096Z,976.50
2023-05-11T07:43:07.085Z,976.53
2023-05-11T07:44:07.084Z,976.53
2023-05-11T07:45:07.050Z,976.49
2023-05-11T07:46:07.075Z,976.54
2023-05-11T07:47:07.017Z,976.52
2023-05-11T07:48:07.028Z,976.48
2023-05-11T07:49:15.610Z,976.51
2023-05-11T07:50:07.978Z,976.52
2023-05-11T07:51:06.970Z,976.56
2023-05-11T07:52:06.949Z,976.51
2023-05-11T07:53:06.951Z,976.48
2023-05-11T07:54:06.937Z,976.53
2023-05-11T07:55:06.920Z,976.56
2023-05-11T07:56:06.892Z,976.54
2023-05-11T07:57:06.910Z,976.49
2023-05-11T07:58:06.895Z,976.51
2023-05-11T07:59:06.863Z,976.49
2023-05-11T08:00:06.854Z,976.48
2023-05-11T08:01:06.831Z,976.46
2023-05-11T08:02:06.872Z,976.48
2023-05-11T08:03:06.864Z,976.52
2023-05-11T08:04:06.794Z,976.48
2023-05-11T08:05:06.793Z,976.47
2023-05-11T08:06:06.815Z,976.47
2023-05-11T08:07:06.771Z,976.44
2023-05-11T08:08:06.758Z,976.51
2023-05-11T08:09:06.731Z,976.47
2023-05-11T08:10:06.720Z,976.44
2023-05-11T08:11:06.708Z,976.52
2023-05-11T08:12:06.693Z,976.47
2023-05-11T08:13:06.684Z,976.46
2023-05-11T08:14:06.668Z,976.50
2023-05-11T08:15:06.673Z,976.48
2023-05-11T08:16:06.681Z,976.44
2023-05-11T08:17:06.667Z,976.46
2023-05-11T08:18:06.680Z,976.51
2023-05-11T08:19:06.660Z,976.57
2023-05-11T08:20:06.716Z,976.49
2023-05-11T08:21:06.579Z,976.44
2023-05-11T08:22:06.575Z,976.47
2023-05-11T08:23:06.583Z,976.49
2023-05-11T08:24:06.534Z,976.46
2023-05-11T08:25:06.532Z,976.49
2023-05-11T08:26:06.527Z,976.50
2023-05-11T08:27:06.493Z,976.51
2023-05-11T08:28:06.497Z,976.48
2023-05-11T08:29:06.479Z,976.47
2023-05-11T08:30:06.466Z,976.46
2023-05-11T08:31:06.500Z,976.47
2023-05-11T08:32:06.534Z,976.51
2023-05-11T08:33:22.843Z,976.49
2023-05-11T08:34:15.791Z,976.48
2023-05-11T08:35:07.610Z,976.51
2023-05-11T08:36:06.374Z,976.54
2023-05-11T08:37:06.361Z,976.47
2023-05-11T08:38:06.347Z,976.51
2023-05-11T08:39:06.337Z,976.52
2023-05-11T08:40:06.333Z,976.46
2023-05-11T08:41:06.313Z,976.55
2023-05-11T08:42:06.299Z,976.49
2023-05-11T08:43:06.279Z,976.53
2023-05-11T08:44:06.280Z,976.45
2023-05-11T08:45:06.265Z,976.49
2023-05-11T08:46:06.271Z,976.49
2023-05-11T08:48:07.240Z,976.50
2023-05-11T08:49:06.224Z,976.47
2023-05-11T08:50:06.200Z,976.46
2023-05-11T08:51:06.196Z,976.48
2023-05-11T08:52:07.810Z,976.45
2023-05-11T08:53:06.154Z,976.47
2023-05-11T08:54:06.160Z,976.50
2023-05-11T08:55:06.357Z,976.47
2023-05-11T08:56:06.141Z,976.46
2023-05-11T08:57:06.102Z,976.50
2023-05-11T08:58:06.103Z,976.48
2023-05-11T08:59:06.081Z,976.46
2023-05-11T09:00:06.049Z,976.46
2023-05-11T09:01:06.093Z,976.50
2023-05-11T09:02:06.060Z,976.52
2023-05-11T09:03:06.112Z,976.51
2023-05-11T09:04:06.008Z,976.49
2023-05-11T09:05:06.014Z,976.52
2023-05-11T09:06:05.975Z,976.53
2023-05-11T09:07:05.972Z,976.47
2023-05-11T09:08:05.958Z,976.48
2023-05-11T09:09:05.934Z,976.53
2023-05-11T09:10:05.982Z,976.54
2023-05-11T09:11:05.909Z,976.49
2023-05-11T09:12:05.909Z,976.44
2023-05-11T09:13:05.900Z,976.46
2023-05-11T09:14:05.881Z,976.53
2023-05-11T09:15:05.887Z,976.49
2023-05-11T09:16:11.313Z,976.44
2023-05-11T09:17:06.960Z,976.45
2023-05-11T09:18:05.959Z,976.50
2023-05-11T09:19:05.829Z,976.51
2023-05-11T09:20:05.949Z,976.47
2023-05-11T09:21:05.774Z,976.51
2023-05-11T09:22:05.778Z,976.42
2023-05-11T09:23:05.749Z,976.49
2023-05-11T09:24:05.735Z,976.43
2023-05-11T09:25:05.727Z,976.46
2023-05-11T09:26:05.723Z,976.47
2023-05-11T09:27:05.717Z,976.49
2023-05-11T09:28:05.684Z,976.48
2023-05-11T09:29:05.718Z,976.49
2023-05-11T09:30:05.656Z,976.47
2023-05-11T09:31:05.685Z,976.41
2023-05-11T09:32:05.640Z,976.49
2023-05-11T09:33:05.673Z,976.46
2023-05-11T09:34:05.614Z,976.46
2023-05-11T09:35:05.620Z,976.52
2023-05-11T09:36:05.607Z,976.50
2023-05-11T09:37:05.576Z,976.42
2023-05-11T09:38:05.585Z,976.42
2023-05-11T09:39:05.548Z,976.44
2023-05-11T09:41:05.536Z,976.34
2023-05-11T09:42:05.660Z,976.39
2023-05-11T09:43:05.501Z,976.43
2023-05-11T09:44:05.498Z,976.40
2023-05-11T09:45:05.501Z,976.35
2023-05-11T09:46:05.499Z,976.42
2023-05-11T09:47:05.442Z,976.40
2023-05-11T10:03:23.202Z,976.33
2023-05-11T10:04:24.161Z,976.34
2023-05-11T10:05:23.083Z,976.37
2023-05-11T10:06:23.082Z,976.31
2023-05-11T10:07:23.069Z,976.36
2023-05-11T10:08:23.064Z,976.35
2023-05-11T10:09:23.034Z,976.33
2023-05-11T10:10:23.022Z,976.30
2023-05-11T10:11:25.459Z,976.26
2023-05-11T10:12:22.992Z,976.29
2023-05-11T10:13:23.007Z,976.30
2023-05-11T10:14:22.969Z,976.28
2023-05-11T10:15:22.965Z,976.27
2023-05-11T10:16:22.995Z,976.25
2023-05-11T10:17:29.977Z,976.26
2023-05-11T10:18:23.076Z,976.22
2023-05-11T10:19:22.903Z,976.20
2023-05-11T10:20:22.899Z,976.24
2023-05-11T10:21:22.905Z,976.25
2023-05-11T10:22:22.947Z,976.23
2023-05-11T10:23:22.844Z,976.21
2023-05-11T10:24:22.876Z,976.15
2023-05-11T10:25:22.848Z,976.15
2023-05-11T10:26:22.824Z,976.18
2023-05-11T10:27:22.817Z,976.16
2023-05-11T10:28:22.791Z,976.12
2023-05-11T10:29:22.769Z,976.09
2023-05-11T10:30:22.762Z,976.18
2023-05-11T10:31:22.790Z,976.11
2023-05-11T10:32:22.867Z,976.16
2023-05-11T10:33:22.719Z,976.13
2023-05-11T10:34:22.712Z,976.13
2023-05-11T10:35:22.692Z,976.13
2023-05-11T10:36:22.689Z,976.08
2023-05-11T10:37:22.664Z,976.14
2023-05-11T10:38:22.798Z,976.12
2023-05-11T10:39:22.636Z,976.08
2023-05-11T10:40:22.639Z,976.04
2023-05-11T10:41:22.625Z,976.04
2023-05-11T10:42:22.615Z,976.13
2023-05-11T10:43:22.583Z,976.07
2023-05-11T10:44:22.568Z,976.00
2023-05-11T10:45:22.600Z,976.11
2023-05-11T10:46:22.557Z,976.03
2023-05-11T10:47:22.544Z,976.01
2023-05-11T10:48:22.521Z,975.99
2023-05-11T10:49:22.526Z,975.95
2023-05-11T10:50:22.514Z,975.95
2023-05-11T10:51:22.475Z,976.01
2023-05-11T10:52:22.477Z,975.95
2023-05-11T10:53:22.458Z,975.98
2023-05-11T10:54:22.454Z,975.93
2023-05-11T10:55:22.438Z,975.91
2023-05-11T10:56:22.415Z,976.01
2023-05-11T10:57:22.403Z,975.94
2023-05-11T10:58:22.391Z,975.87
2023-05-11T10:59:22.408Z,975.89
2023-05-11T11:00:22.585Z,975.90
2023-05-11T11:01:22.382Z,975.98
2023-05-11T11:02:22.380Z,975.92
2023-05-11T11:03:22.313Z,975.95
2023-05-11T11:04:22.331Z,975.97
2023-05-11T11:05:22.496Z,975.96
2023-05-11T11:06:22.306Z,975.95
2023-05-11T11:07:22.274Z,975.99
2023-05-11T11:08:22.280Z,975.98
2023-05-11T11:09:22.259Z,975.94
2023-05-11T11:10:22.232Z,975.93
2023-05-11T11:11:22.224Z,975.95
2023-05-11T11:12:22.205Z,975.96
2023-05-11T11:13:22.211Z,975.94
2023-05-11T11:14:22.178Z,975.89
2023-05-11T11:15:22.172Z,976.02
2023-05-11T11:16:22.174Z,975.93
2023-05-11T11:17:22.216Z,975.97
2023-05-11T11:18:22.170Z,975.96
2023-05-11T11:19:22.118Z,975.96
2023-05-11T11:20:22.110Z,975.93
2023-05-11T11:21:22.904Z,975.92
2023-05-11T11:22:22.089Z,975.96
2023-05-11T11:23:22.072Z,975.97
2023-05-11T11:24:22.053Z,975.93
2023-05-11T11:25:22.029Z,975.95
2023-05-11T11:26:22.021Z,975.95
2023-05-11T11:27:22.020Z,975.97
2023-05-11T11:28:22.015Z,975.94
2023-05-11T11:29:21.987Z,975.92
2023-05-11T11:30:21.965Z,975.96
2023-05-11T11:31:22.027Z,976.01
2023-05-11T11:32:21.954Z,975.98
2023-05-11T11:33:21.952Z,975.99
2023-05-11T11:34:21.927Z,976.01
2023-05-11T11:35:21.897Z,976.03
2023-05-11T11:36:21.893Z,976.04
2023-05-11T11:37:21.881Z,976.01
2023-05-11T11:38:21.873Z,976.00
2023-05-11T11:39:21.874Z,976.03
2023-05-11T11:40:21.848Z,976.04
2023-05-11T11:41:21.831Z,976.07
2023-05-11T11:42:21.804Z,976.05
2023-05-11T11:43:21.804Z,976.03
2023-05-11T11:44:21.794Z,976.04
2023-05-11T11:45:21.774Z,976.13
2023-05-11T11:46:21.785Z,976.08
2023-05-11T11:47:21.763Z,976.11
2023-05-11T11:48:21.745Z,976.08
2023-05-11T11:49:21.719Z,976.11
2023-05-11T11:50:21.704Z,976.07
2023-05-11T11:51:21.683Z,976.10
2023-05-11T11:52:21.678Z,976.13
2023-05-11T11:53:21.676Z,976.14
2023-05-11T11:54:21.645Z,976.15
2023-05-11T11:55:21.638Z,976.14
2023-05-11T11:56:21.622Z,976.10
2023-05-11T11:57:21.620Z,976.13
2023-05-11T11:58:21.593Z,976.09
2023-05-11T11:59:21.587Z,976.08
2023-05-11T12:00:21.575Z,976.12
2023-05-11T12:01:21.579Z,976.13
2023-05-11T12:02:21.544Z,976.07
2023-05-11T12:03:21.617Z,976.12
2023-05-11T12:04:21.581Z,976.05
2023-05-11T12:05:22.017Z,976.05
2023-05-11T12:06:21.497Z,976.11
2023-05-11T12:07:21.475Z,976.10
2023-05-11T12:08:21.470Z,976.10
2023-05-11T12:09:21.515Z,976.14
2023-05-11T12:10:21.443Z,976.11
2023-05-11T12:11:21.451Z,976.07
2023-05-11T12:12:21.409Z,976.09
2023-05-11T12:13:21.432Z,976.09
2023-05-11T12:14:21.408Z,976.07
2023-05-11T12:15:21.376Z,976.08
2023-05-11T12:16:21.382Z,976.09
2023-05-11T12:17:21.420Z,976.12
2023-05-11T12:18:21.436Z,976.06
2023-05-11T12:19:21.342Z,976.02
2023-05-11T12:20:21.322Z,976.05
2023-05-11T12:21:21.317Z,976.03
2023-05-11T12:22:21.280Z,976.05
2023-05-11T12:23:21.274Z,976.01
2023-05-11T12:24:21.241Z,976.09
2023-05-11T12:25:21.412Z,976.05
2023-05-11T12:26:21.220Z,976.09
2023-05-11T12:27:21.225Z,976.06
2023-05-11T12:28:21.200Z,976.10
2023-05-11T12:29:21.192Z,976.14
2023-05-11T12:30:21.172Z,976.15
2023-05-11T12:31:21.235Z,976.10
2023-05-11T12:32:21.151Z,976.09
2023-05-11T12:33:21.168Z,976.19
2023-05-11T12:34:21.136Z,976.19
2023-05-11T12:35:21.119Z,976.23
2023-05-11T12:36:21.102Z,976.20
2023-05-11T12:37:21.085Z,976.20
2023-05-11T12:38:21.072Z,976.22
2023-05-11T12:39:21.062Z,976.20
2023-05-11T12:40:21.101Z,976.18
2023-05-11T12:41:21.038Z,976.20
2023-05-11T12:42:21.022Z,976.27
2023-05-11T12:43:21.025Z,976.26
2023-05-11T12:44:21.043Z,976.19
2023-05-11T12:45:21.126Z,976.20
2023-05-11T12:46:21.048Z,976.23
2023-05-11T12:47:20.976Z,976.25
2023-05-11T12:48:20.942Z,976.18
2023-05-11T12:50:20.925Z,976.15
2023-05-11T12:51:20.914Z,976.19
2023-05-11T12:52:20.900Z,976.18
2023-05-11T12:53:20.884Z,976.21
2023-05-11T12:54:20.877Z,976.19
2023-05-11T12:55:20.900Z,976.12
2023-05-11T12:56:20.838Z,976.16
2023-05-11T12:57:20.829Z,976.07
2023-05-11T12:58:20.836Z,976.03
2023-05-11T12:59:20.818Z,976.01